createdAt,value
2017-06-02T00:00:30.560Z,0
2017-06-02T00:01:11.094Z,0
2017-06-02T00:01:51.595Z,0
2017-06-02T00:02:32.070Z,0
2017-06-02T00:03:12.534Z,0
2017-06-02T00:03:53.038Z,0
2017-06-02T00:04:33.552Z,0
2017-06-02T00:05:14.065Z,0
2017-06-02T00:05:54.560Z,0
2017-06-02T00:06:35.083Z,0
2017-06-02T00:07:15.563Z,0
2017-06-02T00:07:56.074Z,0
2017-06-02T00:08:36.567Z,0
2017-06-02T00:09:17.035Z,0
2017-06-02T00:09:57.529Z,0
2017-06-02T00:10:38.043Z,0
2017-06-02T00:11:18.505Z,0
2017-06-02T00:11:59.005Z,0
2017-06-02T00:12:39.481Z,0
2017-06-02T00:13:20.035Z,0
2017-06-02T00:14:00.557Z,0
2017-06-02T00:14:41.029Z,0
2017-06-02T00:15:21.472Z,0
2017-06-02T00:16:01.985Z,0
2017-06-02T00:16:42.452Z,0
2017-06-02T00:18:40.550Z,0
2017-06-02T00:19:21.087Z,0
2017-06-02T00:20:01.547Z,0
2017-06-02T00:20:42.040Z,0
2017-06-02T00:21:22.538Z,0
2017-06-02T00:22:03.014Z,0
2017-06-02T00:22:43.525Z,0
2017-06-02T00:23:23.981Z,0
2017-06-02T00:24:04.502Z,0
2017-06-02T00:24:45.003Z,0
2017-06-02T00:25:25.513Z,0
2017-06-02T00:26:05.994Z,0
2017-06-02T00:26:46.472Z,0
2017-06-02T00:27:26.923Z,0
2017-06-02T00:28:07.433Z,0
2017-06-02T00:28:47.903Z,0
2017-06-02T00:29:28.403Z,0
2017-06-02T00:30:08.899Z,0
2017-06-02T00:30:49.382Z,0
2017-06-02T00:31:29.889Z,0
2017-06-02T00:32:10.332Z,0
2017-06-02T00:32:50.827Z,0
2017-06-02T00:33:31.320Z,0
2017-06-02T00:34:11.865Z,0
2017-06-02T00:34:52.336Z,0
2017-06-02T00:35:32.862Z,0
2017-06-02T00:36:13.353Z,0
2017-06-02T00:36:53.854Z,0
2017-06-02T00:37:34.329Z,0
2017-06-02T00:38:14.831Z,0
2017-06-02T00:38:55.340Z,0
2017-06-02T00:39:35.797Z,0
2017-06-02T00:40:16.288Z,0
2017-06-02T00:40:56.782Z,0
2017-06-02T00:41:37.268Z,0
2017-06-02T00:42:17.778Z,0
2017-06-02T00:42:58.294Z,0
2017-06-02T00:43:38.808Z,0
2017-06-02T00:44:19.304Z,0
2017-06-02T00:44:59.797Z,0
2017-06-02T00:45:40.284Z,0
2017-06-02T00:46:20.779Z,0
2017-06-02T00:47:01.296Z,0
2017-06-02T00:47:41.767Z,0
2017-06-02T00:48:22.289Z,0
2017-06-02T00:49:02.802Z,0
2017-06-02T00:49:43.337Z,0
2017-06-02T00:50:23.858Z,0
2017-06-02T00:51:04.309Z,0
2017-06-02T00:51:44.844Z,0
2017-06-02T00:52:25.355Z,0
2017-06-02T00:53:05.871Z,0
2017-06-02T00:53:46.345Z,0
2017-06-02T00:54:26.868Z,0
2017-06-02T00:55:07.350Z,0
2017-06-02T00:55:47.863Z,0
2017-06-02T00:56:28.365Z,0
2017-06-02T00:57:08.873Z,0
2017-06-02T00:57:49.466Z,0
2017-06-02T00:58:29.962Z,0
2017-06-02T00:59:10.464Z,0
2017-06-02T00:59:50.952Z,0
2017-06-02T01:00:31.493Z,0
2017-06-02T01:01:12.022Z,0
2017-06-02T01:01:52.506Z,0
2017-06-02T01:02:33.010Z,0
2017-06-02T01:03:13.523Z,0
2017-06-02T01:03:54.050Z,0
2017-06-02T01:04:34.549Z,0
2017-06-02T01:05:15.050Z,0
2017-06-02T01:05:55.581Z,0
2017-06-02T01:06:36.141Z,0
2017-06-02T01:07:16.632Z,0
2017-06-02T01:07:57.144Z,0
2017-06-02T01:08:37.613Z,0
2017-06-02T01:09:18.137Z,0
2017-06-02T01:09:58.597Z,0
2017-06-02T01:10:39.092Z,0
2017-06-02T01:11:19.590Z,0
2017-06-02T01:12:00.067Z,0
2017-06-02T01:12:40.533Z,0
2017-06-02T01:13:21.032Z,0
2017-06-02T01:14:01.499Z,0
2017-06-02T01:14:41.985Z,0
2017-06-02T01:15:22.476Z,0
2017-06-02T01:16:02.975Z,0
2017-06-02T01:16:43.492Z,0
2017-06-02T01:17:23.940Z,0
2017-06-02T01:18:04.431Z,0
2017-06-02T01:18:44.947Z,0
2017-06-02T01:19:25.425Z,0
2017-06-02T01:20:05.956Z,0
2017-06-02T01:20:46.447Z,0
2017-06-02T01:21:26.950Z,0
2017-06-02T01:22:07.456Z,0
2017-06-02T01:22:47.948Z,0
2017-06-02T01:23:28.450Z,0
2017-06-02T01:24:08.958Z,0
2017-06-02T01:24:49.427Z,0
2017-06-02T01:25:29.914Z,0
2017-06-02T01:26:10.426Z,0
2017-06-02T01:26:50.940Z,0
2017-06-02T01:27:31.483Z,0
2017-06-02T01:28:11.973Z,0
2017-06-02T01:28:52.489Z,0
2017-06-02T01:29:33.028Z,0
2017-06-02T01:30:13.539Z,0
2017-06-02T01:30:54.030Z,0
2017-06-02T01:31:34.515Z,0
2017-06-02T01:32:15.041Z,0
2017-06-02T01:32:55.509Z,0
2017-06-02T01:33:35.992Z,0
2017-06-02T01:34:16.458Z,0
2017-06-02T01:34:56.971Z,0
2017-06-02T01:35:37.466Z,0
2017-06-02T01:36:17.964Z,0
2017-06-02T01:36:58.474Z,0
2017-06-02T01:37:38.990Z,0
2017-06-02T01:38:19.470Z,0
2017-06-02T01:38:59.975Z,0
2017-06-02T01:39:40.465Z,0
2017-06-02T01:40:20.952Z,0
2017-06-02T01:41:01.440Z,0
2017-06-02T01:41:41.946Z,0
2017-06-02T01:43:40.177Z,0
2017-06-02T01:44:20.529Z,0
2017-06-02T01:45:01.042Z,0
2017-06-02T01:45:41.565Z,0
2017-06-02T01:46:22.053Z,0
2017-06-02T01:47:02.536Z,0
2017-06-02T01:47:43.046Z,0
2017-06-02T01:48:23.568Z,0
2017-06-02T01:49:04.084Z,0
2017-06-02T01:49:44.598Z,0
2017-06-02T01:50:25.082Z,0
2017-06-02T01:51:05.580Z,0
2017-06-02T01:51:46.052Z,0
2017-06-02T01:52:26.540Z,0
2017-06-02T01:53:07.042Z,0
2017-06-02T01:53:47.558Z,0
2017-06-02T01:54:28.173Z,0
2017-06-02T01:55:08.616Z,0
2017-06-02T01:55:49.119Z,0
2017-06-02T01:56:29.663Z,0
2017-06-02T01:57:10.160Z,0
2017-06-02T01:57:50.651Z,0
2017-06-02T01:58:31.182Z,0
2017-06-02T01:59:11.695Z,0
2017-06-02T01:59:52.164Z,0
2017-06-02T02:00:32.690Z,0
2017-06-02T02:01:13.239Z,0
2017-06-02T02:01:53.744Z,0
2017-06-02T02:02:34.256Z,0
2017-06-02T02:03:14.746Z,0
2017-06-02T02:03:55.240Z,0
2017-06-02T02:04:35.726Z,0
2017-06-02T02:05:16.212Z,0
2017-06-02T02:05:56.726Z,0
2017-06-02T02:06:37.215Z,0
2017-06-02T02:07:17.696Z,0
2017-06-02T02:07:58.209Z,0
2017-06-02T02:08:38.755Z,0
2017-06-02T02:09:19.242Z,4
2017-06-02T02:09:59.772Z,4
2017-06-02T02:10:40.239Z,4
2017-06-02T02:11:20.737Z,4
2017-06-02T02:12:01.231Z,4
2017-06-02T02:12:41.768Z,4
2017-06-02T02:13:22.282Z,0
2017-06-02T02:14:02.781Z,0
2017-06-02T02:14:43.294Z,4
2017-06-02T02:15:23.796Z,4
2017-06-02T02:16:04.321Z,4
2017-06-02T02:16:44.850Z,4
2017-06-02T02:17:25.414Z,4
2017-06-02T02:18:05.919Z,8
2017-06-02T02:18:46.452Z,4
2017-06-02T02:19:26.938Z,4
2017-06-02T02:20:07.445Z,8
2017-06-02T02:20:47.952Z,8
2017-06-02T02:21:28.468Z,4
2017-06-02T02:22:08.970Z,8
2017-06-02T02:22:49.472Z,8
2017-06-02T02:23:29.992Z,12
2017-06-02T02:24:10.486Z,8
2017-06-02T02:24:50.985Z,12
2017-06-02T02:25:31.504Z,12
2017-06-02T02:27:29.619Z,12
2017-06-02T02:28:10.113Z,16
2017-06-02T02:28:50.601Z,16
2017-06-02T02:29:31.116Z,20
2017-06-02T02:30:11.602Z,20
2017-06-02T02:30:52.106Z,24
2017-06-02T02:31:32.601Z,24
2017-06-02T02:32:13.109Z,24
2017-06-02T02:32:53.583Z,24
2017-06-02T02:33:34.102Z,28
2017-06-02T02:34:14.615Z,28
2017-06-02T02:34:55.091Z,32
2017-06-02T02:35:35.628Z,36
2017-06-02T02:36:16.144Z,40
2017-06-02T02:36:56.651Z,40
2017-06-02T02:37:37.181Z,44
2017-06-02T02:38:17.687Z,44
2017-06-02T02:38:58.230Z,48
2017-06-02T02:39:38.689Z,52
2017-06-02T02:40:19.203Z,56
2017-06-02T02:40:59.718Z,60
2017-06-02T02:41:40.229Z,68
2017-06-02T02:42:20.758Z,72
2017-06-02T02:43:01.243Z,76
2017-06-02T02:43:41.732Z,80
2017-06-02T02:44:22.244Z,88
2017-06-02T02:45:02.741Z,92
2017-06-02T02:45:43.275Z,96
2017-06-02T02:46:23.776Z,104
2017-06-02T02:47:04.302Z,108
2017-06-02T02:47:44.793Z,116
2017-06-02T02:48:25.283Z,124
2017-06-02T02:49:05.807Z,128
2017-06-02T02:49:46.326Z,136
2017-06-02T02:50:26.840Z,140
2017-06-02T02:51:07.324Z,148
2017-06-02T02:51:47.809Z,152
2017-06-02T02:52:28.330Z,156
2017-06-02T02:53:08.855Z,168
2017-06-02T02:53:49.340Z,172
2017-06-02T02:54:29.863Z,180
2017-06-02T02:55:10.358Z,188
2017-06-02T02:55:50.855Z,196
2017-06-02T02:56:31.382Z,200
2017-06-02T02:57:11.842Z,212
2017-06-02T02:57:52.347Z,220
2017-06-02T02:58:32.852Z,228
2017-06-02T02:59:13.365Z,236
2017-06-02T02:59:53.889Z,244
2017-06-02T03:00:34.404Z,256
2017-06-02T03:01:14.926Z,264
2017-06-02T03:01:55.435Z,272
2017-06-02T03:02:35.909Z,284
2017-06-02T03:03:16.429Z,292
2017-06-02T03:03:56.933Z,304
2017-06-02T03:04:37.430Z,312
2017-06-02T03:05:17.950Z,320
2017-06-02T03:05:58.486Z,332
2017-06-02T03:06:38.978Z,340
2017-06-02T03:07:19.492Z,348
2017-06-02T03:08:00.015Z,364
2017-06-02T03:08:40.562Z,372
2017-06-02T03:09:21.059Z,384
2017-06-02T03:10:01.557Z,392
2017-06-02T03:10:42.053Z,404
2017-06-02T03:11:22.592Z,416
2017-06-02T03:12:03.108Z,424
2017-06-02T03:12:43.603Z,436
2017-06-02T03:13:24.102Z,448
2017-06-02T03:14:04.607Z,456
2017-06-02T03:14:45.124Z,468
2017-06-02T03:15:25.653Z,480
2017-06-02T03:16:06.140Z,496
2017-06-02T03:16:46.642Z,504
2017-06-02T03:17:27.178Z,520
2017-06-02T03:18:07.692Z,536
2017-06-02T03:18:48.199Z,556
2017-06-02T03:19:28.727Z,568
2017-06-02T03:20:09.276Z,580
2017-06-02T03:20:49.747Z,596
2017-06-02T03:21:30.292Z,604
2017-06-02T03:22:10.797Z,620
2017-06-02T03:22:51.324Z,640
2017-06-02T03:23:31.783Z,656
2017-06-02T03:24:12.306Z,672
2017-06-02T03:24:52.808Z,688
2017-06-02T03:25:33.307Z,700
2017-06-02T03:26:13.831Z,716
2017-06-02T03:26:54.362Z,736
2017-06-02T03:27:34.885Z,756
2017-06-02T03:28:15.409Z,776
2017-06-02T03:28:55.928Z,800
2017-06-02T03:29:36.412Z,820
2017-06-02T03:30:16.955Z,840
2017-06-02T03:30:57.428Z,852
2017-06-02T03:31:37.928Z,872
2017-06-02T03:32:18.458Z,888
2017-06-02T03:32:58.981Z,900
2017-06-02T03:33:39.519Z,912
2017-06-02T03:34:20.037Z,924
2017-06-02T03:35:00.525Z,936
2017-06-02T03:35:41.009Z,952
2017-06-02T03:36:21.489Z,968
2017-06-02T03:37:01.960Z,980
2017-06-02T03:37:42.480Z,996
2017-06-02T03:38:22.965Z,1012
2017-06-02T03:39:03.499Z,1020
2017-06-02T03:39:43.997Z,1036
2017-06-02T03:40:24.467Z,1048
2017-06-02T03:41:04.923Z,1060
2017-06-02T03:41:45.432Z,1076
2017-06-02T03:42:25.915Z,1092
2017-06-02T03:43:06.388Z,1108
2017-06-02T03:43:46.863Z,1128
2017-06-02T03:44:27.366Z,1148
2017-06-02T03:45:07.822Z,1168
2017-06-02T03:45:48.316Z,1192
2017-06-02T03:46:28.792Z,1216
2017-06-02T03:47:09.284Z,1240
2017-06-02T03:47:49.733Z,1272
2017-06-02T03:48:30.205Z,1304
2017-06-02T03:49:10.700Z,1336
2017-06-02T03:49:51.203Z,1364
2017-06-02T03:50:31.686Z,1388
2017-06-02T03:51:12.177Z,1412
2017-06-02T03:51:52.638Z,1436
2017-06-02T03:52:33.151Z,1456
2017-06-02T03:53:13.662Z,1488
2017-06-02T03:53:54.191Z,1508
2017-06-02T03:54:34.682Z,1524
2017-06-02T03:55:15.168Z,1532
2017-06-02T03:55:55.647Z,1552
2017-06-02T03:56:36.125Z,1576
2017-06-02T03:57:16.610Z,1608
2017-06-02T03:57:57.131Z,1640
2017-06-02T03:58:37.608Z,1688
2017-06-02T03:59:18.095Z,1716
2017-06-02T03:59:58.626Z,1764
2017-06-02T04:00:39.119Z,1792
2017-06-02T04:01:19.618Z,1816
2017-06-02T04:02:00.084Z,1828
2017-06-02T04:02:40.563Z,1848
2017-06-02T04:03:21.060Z,1876
2017-06-02T04:04:01.547Z,1880
2017-06-02T04:04:42.022Z,1876
2017-06-02T04:05:22.504Z,1912
2017-06-02T04:06:02.986Z,1932
2017-06-02T04:06:43.447Z,1948
2017-06-02T04:07:23.951Z,1928
2017-06-02T04:08:04.449Z,1968
2017-06-02T04:08:44.908Z,1968
2017-06-02T04:09:25.395Z,2000
2017-06-02T04:10:05.904Z,2012
2017-06-02T04:10:46.374Z,2020
2017-06-02T04:11:26.866Z,2016
2017-06-02T04:12:07.377Z,2004
2017-06-02T04:12:47.871Z,2004
2017-06-02T04:13:28.399Z,1992
2017-06-02T04:14:08.869Z,1992
2017-06-02T04:14:49.334Z,2036
2017-06-02T04:15:29.863Z,2048
2017-06-02T04:16:10.399Z,2100
2017-06-02T04:16:50.935Z,2140
2017-06-02T04:17:31.428Z,2168
2017-06-02T04:18:11.921Z,2216
2017-06-02T04:18:52.510Z,2248
2017-06-02T04:19:33.054Z,2200
2017-06-02T04:20:13.653Z,2232
2017-06-02T04:20:54.174Z,2184
2017-06-02T04:21:34.686Z,2168
2017-06-02T04:22:15.231Z,2192
2017-06-02T04:22:55.799Z,2220
2017-06-02T04:23:36.359Z,2244
2017-06-02T04:24:16.880Z,2320
2017-06-02T04:24:57.384Z,2380
2017-06-02T04:25:37.916Z,2404
2017-06-02T04:33:47.741Z,2272
2017-06-02T04:34:27.991Z,2288
2017-06-02T04:35:08.569Z,2220
2017-06-02T04:35:49.109Z,2168
2017-06-02T04:36:29.651Z,2128
2017-06-02T04:37:10.106Z,2064
2017-06-02T04:37:50.608Z,2060
2017-06-02T04:38:31.122Z,2064
2017-06-02T04:39:11.574Z,2096
2017-06-02T04:39:52.090Z,2188
2017-06-02T04:40:32.571Z,2192
2017-06-02T04:41:13.071Z,2188
2017-06-02T04:41:53.567Z,2192
2017-06-02T04:42:34.089Z,2176
2017-06-02T04:43:14.542Z,2156
2017-06-02T04:43:55.022Z,2160
2017-06-02T04:44:35.517Z,2148
2017-06-02T04:45:16.039Z,2180
2017-06-02T04:45:56.524Z,2228
2017-06-02T04:46:37.112Z,2296
2017-06-02T04:47:17.574Z,2328
2017-06-02T04:47:58.067Z,2328
2017-06-02T04:48:38.600Z,2320
2017-06-02T04:49:19.077Z,2376
2017-06-02T04:49:59.572Z,2448
2017-06-02T04:50:40.049Z,2376
2017-06-02T04:51:20.556Z,2380
2017-06-02T04:52:01.060Z,2420
2017-06-02T04:52:41.581Z,2404
2017-06-02T04:53:22.100Z,2360
2017-06-02T04:54:02.615Z,2340
2017-06-02T04:54:43.109Z,2332
2017-06-02T04:55:23.618Z,2352
2017-06-02T04:56:04.053Z,2328
2017-06-02T04:56:44.521Z,2328
2017-06-02T04:57:25.008Z,2336
2017-06-02T04:58:05.500Z,2344
2017-06-02T04:58:45.984Z,2360
2017-06-02T04:59:26.454Z,2376
2017-06-02T05:00:07.561Z,2384
2017-06-02T05:00:48.054Z,2380
2017-06-02T05:01:28.521Z,2392
2017-06-02T05:02:09.007Z,2400
2017-06-02T05:02:49.640Z,2408
2017-06-02T05:03:30.521Z,2412
2017-06-02T05:04:11.477Z,2400
2017-06-02T05:04:51.934Z,2384
2017-06-02T05:05:32.446Z,2360
2017-06-02T05:06:12.943Z,2360
2017-06-02T05:06:53.439Z,2368
2017-06-02T05:07:33.923Z,2452
2017-06-02T05:08:14.593Z,2468
2017-06-02T05:08:55.064Z,2472
2017-06-02T05:09:35.515Z,2476
2017-06-02T05:10:15.990Z,2476
2017-06-02T05:10:56.504Z,2472
2017-06-02T05:11:36.965Z,2448
2017-06-02T05:12:17.474Z,2452
2017-06-02T05:12:57.990Z,2460
2017-06-02T05:13:38.477Z,2492
2017-06-02T05:14:18.964Z,2512
2017-06-02T05:14:59.447Z,2520
2017-06-02T05:15:39.909Z,2520
2017-06-02T05:16:20.482Z,2532
2017-06-02T05:17:00.922Z,2536
2017-06-02T05:17:41.411Z,2540
2017-06-02T05:18:21.901Z,2548
2017-06-02T05:19:02.405Z,2552
2017-06-02T05:19:42.931Z,2560
2017-06-02T05:20:23.435Z,2560
2017-06-02T05:21:03.873Z,2564
2017-06-02T05:21:44.428Z,2576
2017-06-02T05:22:24.921Z,2580
2017-06-02T05:23:05.400Z,2588
2017-06-02T05:23:45.910Z,2588
2017-06-02T05:24:26.443Z,2596
2017-06-02T05:25:06.886Z,2596
2017-06-02T05:25:47.394Z,2604
2017-06-02T05:26:27.854Z,2612
2017-06-02T05:27:08.347Z,2616
2017-06-02T05:27:48.865Z,2620
2017-06-02T05:28:29.448Z,2624
2017-06-02T05:29:09.931Z,2628
2017-06-02T05:29:50.396Z,2636
2017-06-02T05:30:30.948Z,2636
2017-06-02T05:31:11.404Z,2644
2017-06-02T05:31:51.915Z,2644
2017-06-02T05:32:32.451Z,2648
2017-06-02T05:33:12.882Z,2656
2017-06-02T05:33:53.390Z,2660
2017-06-02T05:34:33.879Z,2668
2017-06-02T05:35:14.327Z,2668
2017-06-02T05:35:54.827Z,2676
2017-06-02T05:36:35.288Z,2680
2017-06-02T05:37:15.780Z,2684
2017-06-02T05:37:56.254Z,2692
2017-06-02T05:38:36.788Z,2696
2017-06-02T05:39:17.256Z,2696
2017-06-02T05:39:57.724Z,2704
2017-06-02T05:40:38.228Z,2712
2017-06-02T05:41:18.697Z,2716
2017-06-02T05:41:59.224Z,2724
2017-06-02T05:42:39.721Z,2728
2017-06-02T05:43:20.214Z,2736
2017-06-02T05:44:00.746Z,2748
2017-06-02T05:44:41.224Z,2756
2017-06-02T05:45:21.767Z,2664
2017-06-02T05:46:02.296Z,2676
2017-06-02T05:46:42.769Z,2684
2017-06-02T05:47:23.293Z,2692
2017-06-02T05:48:03.861Z,2704
2017-06-02T05:48:44.321Z,2716
2017-06-02T05:49:24.787Z,2724
2017-06-02T05:50:05.288Z,2732
2017-06-02T05:50:45.785Z,2744
2017-06-02T05:51:26.300Z,2752
2017-06-02T05:52:06.782Z,2764
2017-06-02T05:52:47.282Z,2772
2017-06-02T05:53:27.761Z,2780
2017-06-02T05:54:08.397Z,2792
2017-06-02T05:54:48.914Z,2800
2017-06-02T05:55:29.454Z,2808
2017-06-02T05:56:09.982Z,2820
2017-06-02T05:56:50.518Z,2832
2017-06-02T05:57:30.962Z,2840
2017-06-02T05:58:11.470Z,2852
2017-06-02T05:58:51.925Z,2860
2017-06-02T05:59:32.456Z,2872
2017-06-02T06:00:12.912Z,2880
2017-06-02T06:00:53.483Z,2888
2017-06-02T06:01:33.922Z,2900
2017-06-02T06:02:14.400Z,2912
2017-06-02T06:02:54.901Z,2924
2017-06-02T06:03:35.395Z,2932
2017-06-02T06:04:15.962Z,2944
2017-06-02T06:04:56.445Z,2956
2017-06-02T06:05:36.978Z,2964
2017-06-02T06:06:17.453Z,2976
2017-06-02T06:06:58.048Z,2988
2017-06-02T06:07:38.504Z,2996
2017-06-02T06:08:19.035Z,3008
2017-06-02T06:08:59.509Z,3020
2017-06-02T06:09:40.099Z,3028
2017-06-02T06:10:20.655Z,3032
2017-06-02T06:11:01.086Z,3040
2017-06-02T06:11:41.558Z,3044
2017-06-02T06:12:22.021Z,3044
2017-06-02T06:13:02.552Z,3048
2017-06-02T06:13:43.073Z,3040
2017-06-02T06:14:23.535Z,3036
2017-06-02T06:15:04.026Z,3028
2017-06-02T06:15:44.549Z,3020
2017-06-02T06:16:24.957Z,3016
2017-06-02T06:17:05.437Z,3012
2017-06-02T06:17:45.906Z,3004
2017-06-02T06:18:26.392Z,2996
2017-06-02T06:19:06.872Z,2988
2017-06-02T06:19:47.332Z,2984
2017-06-02T06:20:27.922Z,2972
2017-06-02T06:21:08.360Z,2960
2017-06-02T06:21:48.905Z,2952
2017-06-02T06:22:29.394Z,2944
2017-06-02T06:23:09.832Z,2936
2017-06-02T06:23:50.312Z,2924
2017-06-02T06:24:30.792Z,2912
2017-06-02T06:25:11.414Z,2900
2017-06-02T06:25:51.902Z,2888
2017-06-02T06:26:32.406Z,2880
2017-06-02T06:27:12.938Z,2872
2017-06-02T06:27:53.409Z,2864
2017-06-02T06:28:33.895Z,2848
2017-06-02T06:29:14.377Z,2836
2017-06-02T06:29:54.881Z,2832
2017-06-02T06:30:35.405Z,2828
2017-06-02T06:31:15.871Z,2820
2017-06-02T06:31:56.462Z,2816
2017-06-02T06:32:37.004Z,2800
2017-06-02T06:33:17.516Z,2796
2017-06-02T06:33:57.997Z,2796
2017-06-02T06:34:38.482Z,2788
2017-06-02T06:35:18.972Z,2784
2017-06-02T06:35:59.490Z,2780
2017-06-02T06:36:39.995Z,2776
2017-06-02T06:37:20.538Z,2764
2017-06-02T06:38:01.083Z,2760
2017-06-02T06:38:41.617Z,2756
2017-06-02T06:39:22.138Z,2744
2017-06-02T06:40:02.678Z,2736
2017-06-02T06:40:43.206Z,2724
2017-06-02T06:41:23.819Z,2712
2017-06-02T06:42:04.264Z,2704
2017-06-02T06:42:44.747Z,2692
2017-06-02T06:43:25.229Z,2680
2017-06-02T06:44:05.745Z,2660
2017-06-02T06:44:46.197Z,2652
2017-06-02T06:45:26.828Z,2648
2017-06-02T06:46:07.295Z,2636
2017-06-02T06:46:47.749Z,2620
2017-06-02T06:47:28.254Z,2612
2017-06-02T06:48:08.787Z,2608
2017-06-02T06:48:49.639Z,2592
2017-06-02T06:49:30.276Z,2580
2017-06-02T06:50:10.715Z,2584
2017-06-02T06:50:51.174Z,2596
2017-06-02T06:51:31.717Z,2600
2017-06-02T06:52:12.297Z,2604
2017-06-02T06:52:52.826Z,2600
2017-06-02T06:53:33.313Z,2592
2017-06-02T06:54:13.824Z,2592
2017-06-02T06:54:54.299Z,2596
2017-06-02T06:55:34.841Z,2592
2017-06-02T06:56:15.319Z,2584
2017-06-02T06:56:56.548Z,2556
2017-06-02T06:57:38.290Z,2560
2017-06-02T06:58:18.760Z,2568
2017-06-02T06:58:59.260Z,2576
2017-06-02T06:59:39.752Z,2568
2017-06-02T07:00:20.199Z,2576
2017-06-02T07:01:00.678Z,2592
2017-06-02T07:01:41.184Z,2576
2017-06-02T07:02:21.725Z,2604
2017-06-02T07:03:02.224Z,2600
2017-06-02T07:03:42.696Z,2604
2017-06-02T07:04:23.193Z,2592
2017-06-02T07:05:03.685Z,2568
2017-06-02T07:05:44.140Z,2572
2017-06-02T07:06:24.623Z,2572
2017-06-02T07:07:05.086Z,2596
2017-06-02T07:07:45.608Z,2604
2017-06-02T07:08:26.120Z,2604
2017-06-02T07:09:06.596Z,2604
2017-06-02T07:09:47.715Z,2596
2017-06-02T07:10:29.035Z,2604
2017-06-02T07:11:09.499Z,2608
2017-06-02T07:11:51.387Z,2616
2017-06-02T07:12:32.343Z,2604
2017-06-02T07:13:14.682Z,2616
2017-06-02T07:13:55.539Z,2632
2017-06-02T07:14:36.017Z,2628
2017-06-02T07:15:16.637Z,2624
2017-06-02T07:15:57.116Z,2620
2017-06-02T07:16:37.641Z,2624
2017-06-02T07:17:18.132Z,2620
2017-06-02T07:17:58.683Z,2620
2017-06-02T07:18:39.128Z,2620
2017-06-02T07:19:22.272Z,2620
2017-06-02T07:20:02.936Z,2620
2017-06-02T07:20:43.461Z,2612
2017-06-02T07:21:23.944Z,2612
2017-06-02T07:23:54.600Z,2628
2017-06-02T07:26:07.854Z,2632
2017-06-02T07:26:48.383Z,2632
2017-06-02T07:27:28.902Z,2628
2017-06-02T07:28:09.414Z,2620
2017-06-02T07:28:50.022Z,2612
2017-06-02T07:29:30.533Z,2624
2017-06-02T07:30:11.127Z,2624
2017-06-02T07:30:51.921Z,2620
2017-06-02T07:31:32.454Z,2620
2017-06-02T07:32:13.032Z,2616
2017-06-02T07:32:53.531Z,2620
2017-06-02T07:33:35.150Z,2616
2017-06-02T07:34:17.693Z,2616
2017-06-02T07:34:58.612Z,2616
2017-06-02T07:35:41.395Z,2620
2017-06-02T07:36:21.885Z,2616
2017-06-02T07:37:02.414Z,2616
2017-06-02T07:37:42.907Z,2612
2017-06-02T07:38:23.382Z,2608
2017-06-02T07:39:03.877Z,2608
2017-06-02T07:39:44.335Z,2604
2017-06-02T07:40:24.840Z,2600
2017-06-02T07:41:05.338Z,2600
2017-06-02T07:41:45.824Z,2604
2017-06-02T07:42:26.314Z,2604
2017-06-02T07:43:06.778Z,2608
2017-06-02T07:43:47.360Z,2612
2017-06-02T07:44:27.804Z,2616
2017-06-02T07:45:08.273Z,2616
2017-06-02T07:45:48.850Z,2616
2017-06-02T07:46:29.306Z,2616
2017-06-02T07:47:09.777Z,2620
2017-06-02T07:47:50.269Z,2612
2017-06-02T07:48:30.766Z,2616
2017-06-02T07:49:11.241Z,2620
2017-06-02T07:49:51.705Z,2624
2017-06-02T07:50:32.196Z,2624
2017-06-02T07:51:12.688Z,2632
2017-06-02T07:51:53.215Z,2628
2017-06-02T07:52:33.681Z,2636
2017-06-02T07:53:14.166Z,2632
2017-06-02T07:53:54.673Z,2624
2017-06-02T07:54:35.272Z,2632
2017-06-02T07:55:15.698Z,2628
2017-06-02T07:55:56.181Z,2632
2017-06-02T07:56:36.681Z,2628
2017-06-02T07:57:17.186Z,2628
2017-06-02T07:57:57.716Z,2628
2017-06-02T07:58:38.176Z,2632
2017-06-02T07:59:18.690Z,2632
2017-06-02T07:59:59.163Z,2632
2017-06-02T08:00:39.870Z,2632
2017-06-02T08:01:20.376Z,2632
2017-06-02T08:02:00.825Z,2632
2017-06-02T08:02:41.340Z,2636
2017-06-02T08:03:21.912Z,2640
2017-06-02T08:04:02.384Z,2636
2017-06-02T08:04:42.910Z,2640
2017-06-02T08:05:23.464Z,2644
2017-06-02T08:06:03.953Z,2640
2017-06-02T08:06:44.544Z,2644
2017-06-02T08:07:25.072Z,2644
2017-06-02T08:08:05.634Z,2648
2017-06-02T08:08:46.153Z,2640
2017-06-02T08:09:26.589Z,2640
2017-06-02T08:10:07.146Z,2644
2017-06-02T08:10:47.587Z,2644
2017-06-02T08:11:28.085Z,2644
2017-06-02T08:12:08.551Z,2648
2017-06-02T08:12:49.064Z,2648
2017-06-02T08:13:29.604Z,2652
2017-06-02T08:14:10.055Z,2660
2017-06-02T08:14:50.633Z,2668
2017-06-02T08:15:31.120Z,2672
2017-06-02T08:16:11.608Z,2680
2017-06-02T08:16:52.116Z,2684
2017-06-02T08:17:33.176Z,2696
2017-06-02T08:18:13.707Z,2700
2017-06-02T08:18:54.178Z,2712
2017-06-02T08:19:34.669Z,2724
2017-06-02T08:20:15.188Z,2736
2017-06-02T08:20:55.635Z,2748
2017-06-02T08:21:36.129Z,2756
2017-06-02T08:22:16.630Z,2768
2017-06-02T08:22:57.116Z,2788
2017-06-02T08:23:37.620Z,2804
2017-06-02T08:24:18.172Z,2816
2017-06-02T08:24:58.813Z,2832
2017-06-02T08:25:39.322Z,2844
2017-06-02T08:26:19.792Z,2856
2017-06-02T08:27:00.346Z,2872
2017-06-02T08:27:40.859Z,2884
2017-06-02T08:28:21.439Z,2900
2017-06-02T08:29:01.894Z,2916
2017-06-02T08:29:42.482Z,2928
2017-06-02T08:30:22.961Z,2940
2017-06-02T08:31:03.475Z,2960
2017-06-02T08:31:43.967Z,2972
2017-06-02T08:32:24.463Z,2988
2017-06-02T08:33:05.011Z,3000
2017-06-02T08:33:45.532Z,3012
2017-06-02T08:34:26.025Z,3024
2017-06-02T08:35:06.539Z,3036
2017-06-02T08:35:47.019Z,3048
2017-06-02T08:36:27.522Z,3056
2017-06-02T08:37:08.025Z,3064
2017-06-02T08:37:48.550Z,3076
2017-06-02T08:38:29.040Z,3088
2017-06-02T08:39:09.527Z,3096
2017-06-02T08:39:50.013Z,3100
2017-06-02T08:40:30.500Z,3108
2017-06-02T08:41:11.023Z,3116
2017-06-02T08:41:51.955Z,3120
2017-06-02T08:42:32.469Z,3124
2017-06-02T08:43:13.001Z,3128
2017-06-02T08:43:53.519Z,3132
2017-06-02T08:44:34.027Z,3136
2017-06-02T08:45:14.495Z,3140
2017-06-02T08:45:55.006Z,3144
2017-06-02T08:46:35.541Z,3148
2017-06-02T08:47:16.070Z,3152
2017-06-02T08:47:56.526Z,3152
2017-06-02T08:48:37.071Z,3152
2017-06-02T08:49:17.758Z,3160
2017-06-02T08:49:58.309Z,3160
2017-06-02T08:50:38.819Z,3160
2017-06-02T08:51:19.290Z,3164
2017-06-02T08:51:59.883Z,3168
2017-06-02T08:52:40.400Z,3164
2017-06-02T08:53:20.931Z,3164
2017-06-02T08:54:01.396Z,3160
2017-06-02T08:54:41.895Z,3160
2017-06-02T08:55:22.427Z,3156
2017-06-02T08:56:02.891Z,3152
2017-06-02T08:56:43.435Z,3140
2017-06-02T08:57:24.152Z,3144
2017-06-02T08:58:04.642Z,3148
2017-06-02T08:58:45.207Z,3156
2017-06-02T08:59:25.704Z,3156
2017-06-02T09:00:06.227Z,3156
2017-06-02T09:00:46.740Z,3036
2017-06-02T09:01:27.432Z,3248
2017-06-02T09:02:07.908Z,3248
2017-06-02T09:02:48.385Z,3248
2017-06-02T09:03:28.941Z,3252
2017-06-02T09:04:09.490Z,3248
2017-06-02T09:04:50.046Z,3244
2017-06-02T09:05:30.502Z,3244
2017-06-02T09:06:11.101Z,3240
2017-06-02T09:06:51.617Z,3240
2017-06-02T09:07:32.115Z,3240
2017-06-02T09:08:12.668Z,3236
2017-06-02T09:08:53.148Z,3232
2017-06-02T09:09:33.625Z,3224
2017-06-02T09:10:14.144Z,3224
2017-06-02T09:10:54.613Z,3220
2017-06-02T09:11:35.141Z,3216
2017-06-02T09:12:15.775Z,3220
2017-06-02T09:12:56.324Z,3220
2017-06-02T09:13:36.898Z,3216
2017-06-02T09:14:17.349Z,3216
2017-06-02T09:14:58.811Z,3216
2017-06-02T09:15:39.320Z,3216
2017-06-02T09:16:19.807Z,3212
2017-06-02T09:17:00.299Z,3216
2017-06-02T09:17:40.827Z,3216
2017-06-02T09:18:23.689Z,3220
2017-06-02T09:19:04.190Z,3220
2017-06-02T09:19:44.686Z,3224
2017-06-02T09:20:25.236Z,3224
2017-06-02T09:21:06.591Z,3228
2017-06-02T09:21:47.060Z,3224
2017-06-02T09:22:27.575Z,3228
2017-06-02T09:23:08.109Z,3228
2017-06-02T09:23:48.589Z,3224
2017-06-02T09:24:29.084Z,3228
2017-06-02T09:25:09.536Z,3228
2017-06-02T09:25:50.052Z,3228
2017-06-02T09:26:30.547Z,3228
2017-06-02T09:27:11.054Z,3232
2017-06-02T09:27:55.781Z,3232
2017-06-02T09:28:39.502Z,3228
2017-06-02T09:29:20.275Z,3228
2017-06-02T09:30:01.079Z,3232
2017-06-02T09:30:41.603Z,3232
2017-06-02T09:31:22.159Z,3236
2017-06-02T09:32:02.648Z,3240